Lynnville, Kentucky
Current Conditions -  °F | °C
As of 2:15 PM on Sunday 25 Jan 2015 (Local Time) from KCEY Reporting Station
Broken Clouds Broken Clouds  
Wind Chill: 35°   Ceiling: 1500
Heat Index: 43°   Visibility: 8mi
Dew Point: 43°   Wind: 15mph
Humidity: 100%   Direction: 260°W
Pressure: 29.62"   Gusts: 18mph
Location:  36.56°N, 88.57°W
Report Text: KCEY 252015Z AUTO 26013G16KT 8SM SCT006 BKN015 BKN028 06/06 A2962 RMK AO1
Loading
Personal Weather Stations






























Interactive Weather Map New forecast layout! Learn more

10-Day Weather Forecast

Advertisements
Track Severe Weather on mobile